sensor_id;sensor_type;location;lat;lon;timestamp;temperature;humidity
51815;DHT22;37874;53.158;6.766;2023-01-24T00:00:51;18.90;55.20
51815;DHT22;37874;53.158;6.766;2023-01-24T00:03:16;18.90;55.20
51815;DHT22;37874;53.158;6.766;2023-01-24T00:05:44;18.90;55.10
51815;DHT22;37874;53.158;6.766;2023-01-24T00:08:15;18.80;55.10
51815;DHT22;37874;53.158;6.766;2023-01-24T00:10:41;19.00;55.00
51815;DHT22;37874;53.158;6.766;2023-01-24T00:13:10;18.90;54.90
51815;DHT22;37874;53.158;6.766;2023-01-24T00:15:36;19.20;55.10
51815;DHT22;37874;53.158;6.766;2023-01-24T00:18:02;18.80;54.80
51815;DHT22;37874;53.158;6.766;2023-01-24T00:20:27;18.90;54.80
51815;DHT22;37874;53.158;6.766;2023-01-24T00:22:53;18.90;54.80
51815;DHT22;37874;53.158;6.766;2023-01-24T00:25:19;18.90;54.90
51815;DHT22;37874;53.158;6.766;2023-01-24T00:27:44;18.90;54.80
51815;DHT22;37874;53.158;6.766;2023-01-24T00:30:10;18.70;54.80
51815;DHT22;37874;53.158;6.766;2023-01-24T00:32:36;18.80;54.90
51815;DHT22;37874;53.158;6.766;2023-01-24T00:35:07;18.80;54.80
51815;DHT22;37874;53.158;6.766;2023-01-24T00:37:33;18.80;54.80
51815;DHT22;37874;53.158;6.766;2023-01-24T00:39:59;18.80;54.80
51815;DHT22;37874;53.158;6.766;2023-01-24T00:42:24;18.80;54.80
51815;DHT22;37874;53.158;6.766;2023-01-24T00:44:50;18.70;54.70
51815;DHT22;37874;53.158;6.766;2023-01-24T00:47:15;18.70;54.80
51815;DHT22;37874;53.158;6.766;2023-01-24T00:49:41;18.70;54.80
51815;DHT22;37874;53.158;6.766;2023-01-24T00:52:07;18.70;54.90
51815;DHT22;37874;53.158;6.766;2023-01-24T00:54:33;18.70;54.90
51815;DHT22;37874;53.158;6.766;2023-01-24T00:56:58;18.70;54.90
51815;DHT22;37874;53.158;6.766;2023-01-24T00:59:24;18.60;54.80
51815;DHT22;37874;53.158;6.766;2023-01-24T01:01:50;18.80;55.00
51815;DHT22;37874;53.158;6.766;2023-01-24T01:04:16;18.60;54.90
51815;DHT22;37874;53.158;6.766;2023-01-24T01:06:43;18.70;55.00
51815;DHT22;37874;53.158;6.766;2023-01-24T01:09:09;19.20;55.30
51815;DHT22;37874;53.158;6.766;2023-01-24T01:11:36;18.60;54.90
51815;DHT22;37874;53.158;6.766;2023-01-24T01:14:04;18.50;54.90
51815;DHT22;37874;53.158;6.766;2023-01-24T01:16:30;18.50;54.90
51815;DHT22;37874;53.158;6.766;2023-01-24T01:18:57;18.60;55.00
51815;DHT22;37874;53.158;6.766;2023-01-24T01:21:23;18.50;54.90
51815;DHT22;37874;53.158;6.766;2023-01-24T01:23:49;18.50;54.90
51815;DHT22;37874;53.158;6.766;2023-01-24T01:26:17;18.50;54.90
51815;DHT22;37874;53.158;6.766;2023-01-24T01:28:43;18.50;54.90
51815;DHT22;37874;53.158;6.766;2023-01-24T01:31:09;18.50;54.90
51815;DHT22;37874;53.158;6.766;2023-01-24T01:33:34;18.50;54.90
51815;DHT22;37874;53.158;6.766;2023-01-24T01:36:00;18.50;54.90
51815;DHT22;37874;53.158;6.766;2023-01-24T01:38:26;18.50;55.00
51815;DHT22;37874;53.158;6.766;2023-01-24T01:40:53;18.40;54.90
51815;DHT22;37874;53.158;6.766;2023-01-24T01:43:22;18.40;54.80
51815;DHT22;37874;53.158;6.766;2023-01-24T01:45:48;18.40;54.80
51815;DHT22;37874;53.158;6.766;2023-01-24T01:48:19;18.40;54.80
51815;DHT22;37874;53.158;6.766;2023-01-24T01:50:53;18.40;54.80
51815;DHT22;37874;53.158;6.766;2023-01-24T01:53:22;18.40;54.80
51815;DHT22;37874;53.158;6.766;2023-01-24T01:55:53;18.40;54.80
51815;DHT22;37874;53.158;6.766;2023-01-24T01:58:20;18.40;54.80
51815;DHT22;37874;53.158;6.766;2023-01-24T02:00:49;18.40;54.80
51815;DHT22;37874;53.158;6.766;2023-01-24T02:03:20;18.40;54.80
51815;DHT22;37874;53.158;6.766;2023-01-24T02:06:19;18.30;54.70
51815;DHT22;37874;53.158;6.766;2023-01-24T02:08:48;18.30;54.70
51815;DHT22;37874;53.158;6.766;2023-01-24T02:11:16;18.30;54.80
51815;DHT22;37874;53.158;6.766;2023-01-24T02:14:01;18.30;54.80
51815;DHT22;37874;53.158;6.766;2023-01-24T02:16:45;18.30;54.80
51815;DHT22;37874;53.158;6.766;2023-01-24T02:19:30;18.30;54.80
51815;DHT22;37874;53.158;6.766;2023-01-24T02:22:07;18.30;54.90
51815;DHT22;37874;53.158;6.766;2023-01-24T02:24:41;18.30;54.90
51815;DHT22;37874;53.158;6.766;2023-01-24T02:27:08;18.30;54.80
51815;DHT22;37874;53.158;6.766;2023-01-24T02:29:34;18.30;54.80
51815;DHT22;37874;53.158;6.766;2023-01-24T02:32:06;18.30;54.80
51815;DHT22;37874;53.158;6.766;2023-01-24T02:34:32;18.30;54.80
51815;DHT22;37874;53.158;6.766;2023-01-24T02:37:04;18.20;54.70
51815;DHT22;37874;53.158;6.766;2023-01-24T02:39:35;18.30;54.70
51815;DHT22;37874;53.158;6.766;2023-01-24T02:42:13;18.30;54.70
51815;DHT22;37874;53.158;6.766;2023-01-24T02:47:30;18.30;54.70
51815;DHT22;37874;53.158;6.766;2023-01-24T02:50:01;18.20;54.70
51815;DHT22;37874;53.158;6.766;2023-01-24T02:52:28;18.30;54.70
51815;DHT22;37874;53.158;6.766;2023-01-24T02:55:12;18.20;54.70
51815;DHT22;37874;53.158;6.766;2023-01-24T02:57:38;18.20;54.70
51815;DHT22;37874;53.158;6.766;2023-01-24T03:00:22;18.20;54.70
51815;DHT22;37874;53.158;6.766;2023-01-24T03:02:49;18.20;54.70
51815;DHT22;37874;53.158;6.766;2023-01-24T03:05:14;18.20;54.70
51815;DHT22;37874;53.158;6.766;2023-01-24T03:07:40;18.20;54.70
51815;DHT22;37874;53.158;6.766;2023-01-24T03:10:15;18.20;54.70
51815;DHT22;37874;53.158;6.766;2023-01-24T03:12:41;18.20;54.70
51815;DHT22;37874;53.158;6.766;2023-01-24T03:15:26;18.20;54.70
51815;DHT22;37874;53.158;6.766;2023-01-24T03:18:11;18.20;54.70
51815;DHT22;37874;53.158;6.766;2023-01-24T03:20:55;18.20;54.70
51815;DHT22;37874;53.158;6.766;2023-01-24T03:23:40;18.20;54.70
51815;DHT22;37874;53.158;6.766;2023-01-24T03:26:25;18.20;54.60
51815;DHT22;37874;53.158;6.766;2023-01-24T03:29:10;18.20;54.70
51815;DHT22;37874;53.158;6.766;2023-01-24T03:31:54;18.20;54.70
51815;DHT22;37874;53.158;6.766;2023-01-24T03:34:38;18.20;54.70
51815;DHT22;37874;53.158;6.766;2023-01-24T03:37:20;18.10;54.60
51815;DHT22;37874;53.158;6.766;2023-01-24T03:40:14;18.10;54.60
51815;DHT22;37874;53.158;6.766;2023-01-24T03:42:41;18.10;54.50
51815;DHT22;37874;53.158;6.766;2023-01-24T03:45:20;18.20;54.50
51815;DHT22;37874;53.158;6.766;2023-01-24T03:47:47;18.40;55.30
51815;DHT22;37874;53.158;6.766;2023-01-24T03:50:42;18.10;54.50
51815;DHT22;37874;53.158;6.766;2023-01-24T03:53:29;18.10;54.50
51815;DHT22;37874;53.158;6.766;2023-01-24T03:55:57;18.10;54.50
51815;DHT22;37874;53.158;6.766;2023-01-24T03:58:24;18.10;54.60
51815;DHT22;37874;53.158;6.766;2023-01-24T04:00:52;18.70;54.80
51815;DHT22;37874;53.158;6.766;2023-01-24T04:03:17;18.10;54.50
51815;DHT22;37874;53.158;6.766;2023-01-24T04:05:45;18.10;54.40
51815;DHT22;37874;53.158;6.766;2023-01-24T04:08:11;18.10;54.40
51815;DHT22;37874;53.158;6.766;2023-01-24T04:10:36;18.10;54.30
51815;DHT22;37874;53.158;6.766;2023-01-24T04:13:02;18.10;54.30
51815;DHT22;37874;53.158;6.766;2023-01-24T04:15:29;18.10;54.40
51815;DHT22;37874;53.158;6.766;2023-01-24T04:17:56;18.00;54.30
51815;DHT22;37874;53.158;6.766;2023-01-24T04:20:26;18.00;54.40
51815;DHT22;37874;53.158;6.766;2023-01-24T04:22:52;18.10;54.40
51815;DHT22;37874;53.158;6.766;2023-01-24T04:25:23;18.20;54.40
51815;DHT22;37874;53.158;6.766;2023-01-24T04:27:51;18.00;54.30
51815;DHT22;37874;53.158;6.766;2023-01-24T04:30:17;18.10;54.40
51815;DHT22;37874;53.158;6.766;2023-01-24T04:32:42;18.00;54.30
51815;DHT22;37874;53.158;6.766;2023-01-24T04:35:15;18.10;54.40
51815;DHT22;37874;53.158;6.766;2023-01-24T04:37:41;18.00;54.40
51815;DHT22;37874;53.158;6.766;2023-01-24T04:40:08;18.00;54.30
51815;DHT22;37874;53.158;6.766;2023-01-24T04:42:33;18.10;54.30
51815;DHT22;37874;53.158;6.766;2023-01-24T04:44:59;18.00;54.30
51815;DHT22;37874;53.158;6.766;2023-01-24T04:47:25;18.00;54.30
51815;DHT22;37874;53.158;6.766;2023-01-24T04:49:50;18.00;54.30
51815;DHT22;37874;53.158;6.766;2023-01-24T04:52:16;18.00;54.40
51815;DHT22;37874;53.158;6.766;2023-01-24T04:54:42;18.00;54.40
51815;DHT22;37874;53.158;6.766;2023-01-24T04:57:09;18.10;54.30
51815;DHT22;37874;53.158;6.766;2023-01-24T04:59:36;18.00;54.20
51815;DHT22;37874;53.158;6.766;2023-01-24T05:02:04;18.00;54.20
51815;DHT22;37874;53.158;6.766;2023-01-24T05:04:30;18.00;54.20
51815;DHT22;37874;53.158;6.766;2023-01-24T05:06:55;18.00;54.20
51815;DHT22;37874;53.158;6.766;2023-01-24T05:09:21;18.00;54.20
51815;DHT22;37874;53.158;6.766;2023-01-24T05:11:47;18.00;54.20
51815;DHT22;37874;53.158;6.766;2023-01-24T05:14:12;18.00;54.10
51815;DHT22;37874;53.158;6.766;2023-01-24T05:16:38;18.00;54.10
51815;DHT22;37874;53.158;6.766;2023-01-24T05:19:04;18.00;54.10
51815;DHT22;37874;53.158;6.766;2023-01-24T05:21:30;18.00;54.20
51815;DHT22;37874;53.158;6.766;2023-01-24T05:23:56;18.00;54.10
51815;DHT22;37874;53.158;6.766;2023-01-24T05:26:24;18.00;54.10
51815;DHT22;37874;53.158;6.766;2023-01-24T05:28:54;18.00;54.10
51815;DHT22;37874;53.158;6.766;2023-01-24T05:31:20;18.00;54.10
51815;DHT22;37874;53.158;6.766;2023-01-24T05:33:49;18.00;54.10
51815;DHT22;37874;53.158;6.766;2023-01-24T05:36:18;18.00;54.10
51815;DHT22;37874;53.158;6.766;2023-01-24T05:38:44;17.90;54.00
51815;DHT22;37874;53.158;6.766;2023-01-24T05:41:12;17.90;54.10
51815;DHT22;37874;53.158;6.766;2023-01-24T05:43:38;17.90;54.00
51815;DHT22;37874;53.158;6.766;2023-01-24T05:46:10;17.90;54.00
51815;DHT22;37874;53.158;6.766;2023-01-24T05:48:36;17.90;54.00
51815;DHT22;37874;53.158;6.766;2023-01-24T05:51:05;17.90;54.10
51815;DHT22;37874;53.158;6.766;2023-01-24T05:53:32;17.90;54.20
51815;DHT22;37874;53.158;6.766;2023-01-24T05:56:00;17.90;54.10
51815;DHT22;37874;53.158;6.766;2023-01-24T05:58:28;17.90;54.10
51815;DHT22;37874;53.158;6.766;2023-01-24T06:00:53;18.30;54.30
51815;DHT22;37874;53.158;6.766;2023-01-24T06:03:22;17.90;54.00
51815;DHT22;37874;53.158;6.766;2023-01-24T06:05:50;17.90;54.00
51815;DHT22;37874;53.158;6.766;2023-01-24T06:08:16;17.90;54.00
51815;DHT22;37874;53.158;6.766;2023-01-24T06:10:42;17.90;54.10
51815;DHT22;37874;53.158;6.766;2023-01-24T06:13:08;17.90;54.00
51815;DHT22;37874;53.158;6.766;2023-01-24T06:15:34;17.90;54.00
51815;DHT22;37874;53.158;6.766;2023-01-24T06:18:00;17.80;54.00
51815;DHT22;37874;53.158;6.766;2023-01-24T06:20:26;17.90;54.10
51815;DHT22;37874;53.158;6.766;2023-01-24T06:22:54;17.90;54.00
51815;DHT22;37874;53.158;6.766;2023-01-24T06:25:23;17.90;54.10
51815;DHT22;37874;53.158;6.766;2023-01-24T06:27:49;17.90;54.10
51815;DHT22;37874;53.158;6.766;2023-01-24T06:30:16;17.90;54.00
51815;DHT22;37874;53.158;6.766;2023-01-24T06:36:05;17.90;54.00
51815;DHT22;37874;53.158;6.766;2023-01-24T06:38:38;17.80;54.00
51815;DHT22;37874;53.158;6.766;2023-01-24T06:41:14;17.80;54.00
51815;DHT22;37874;53.158;6.766;2023-01-24T06:43:43;17.80;54.00
51815;DHT22;37874;53.158;6.766;2023-01-24T06:46:10;17.80;54.20
51815;DHT22;37874;53.158;6.766;2023-01-24T06:48:36;17.80;53.90
51815;DHT22;37874;53.158;6.766;2023-01-24T06:51:01;17.80;54.00
51815;DHT22;37874;53.158;6.766;2023-01-24T06:53:27;17.80;54.00
51815;DHT22;37874;53.158;6.766;2023-01-24T06:55:53;17.80;54.10
51815;DHT22;37874;53.158;6.766;2023-01-24T06:58:22;17.80;54.00
51815;DHT22;37874;53.158;6.766;2023-01-24T07:00:52;17.80;54.00
51815;DHT22;37874;53.158;6.766;2023-01-24T07:03:18;17.80;54.00
51815;DHT22;37874;53.158;6.766;2023-01-24T07:05:43;17.70;54.10
51815;DHT22;37874;53.158;6.766;2023-01-24T07:08:09;17.80;54.10
51815;DHT22;37874;53.158;6.766;2023-01-24T07:10:35;17.90;54.20
51815;DHT22;37874;53.158;6.766;2023-01-24T07:13:01;17.80;54.10
51815;DHT22;37874;53.158;6.766;2023-01-24T07:15:26;17.80;54.10
51815;DHT22;37874;53.158;6.766;2023-01-24T07:17:52;17.80;54.10
51815;DHT22;37874;53.158;6.766;2023-01-24T07:20:18;17.80;54.20
51815;DHT22;37874;53.158;6.766;2023-01-24T07:22:44;17.80;54.20
51815;DHT22;37874;53.158;6.766;2023-01-24T07:25:14;17.80;54.20
51815;DHT22;37874;53.158;6.766;2023-01-24T07:27:42;17.70;54.10
51815;DHT22;37874;53.158;6.766;2023-01-24T07:30:10;17.70;54.10
51815;DHT22;37874;53.158;6.766;2023-01-24T07:32:36;17.70;54.20
51815;DHT22;37874;53.158;6.766;2023-01-24T07:35:02;17.70;54.20
51815;DHT22;37874;53.158;6.766;2023-01-24T07:37:27;17.70;54.20
51815;DHT22;37874;53.158;6.766;2023-01-24T07:39:53;17.70;54.30
51815;DHT22;37874;53.158;6.766;2023-01-24T07:42:18;17.70;54.20
51815;DHT22;37874;53.158;6.766;2023-01-24T07:44:44;17.70;54.10
51815;DHT22;37874;53.158;6.766;2023-01-24T07:47:09;17.70;54.20
51815;DHT22;37874;53.158;6.766;2023-01-24T07:49:35;17.70;54.10
51815;DHT22;37874;53.158;6.766;2023-01-24T07:52:00;18.10;54.40
51815;DHT22;37874;53.158;6.766;2023-01-24T07:54:26;17.70;54.20
51815;DHT22;37874;53.158;6.766;2023-01-24T07:56:52;17.70;54.30
51815;DHT22;37874;53.158;6.766;2023-01-24T07:59:17;17.70;54.20
51815;DHT22;37874;53.158;6.766;2023-01-24T08:01:43;17.70;54.30
51815;DHT22;37874;53.158;6.766;2023-01-24T08:04:09;17.70;54.30
51815;DHT22;37874;53.158;6.766;2023-01-24T08:06:34;17.70;54.30
51815;DHT22;37874;53.158;6.766;2023-01-24T08:09:00;17.70;54.20
51815;DHT22;37874;53.158;6.766;2023-01-24T08:11:26;17.70;54.30
51815;DHT22;37874;53.158;6.766;2023-01-24T08:13:51;17.70;54.30
51815;DHT22;37874;53.158;6.766;2023-01-24T08:16:17;17.70;54.30
51815;DHT22;37874;53.158;6.766;2023-01-24T08:18:43;18.00;54.40
51815;DHT22;37874;53.158;6.766;2023-01-24T08:21:09;18.10;54.50
51815;DHT22;37874;53.158;6.766;2023-01-24T10:23:04;18.20;53.40
51815;DHT22;37874;53.158;6.766;2023-01-24T10:25:13;18.20;53.40
51815;DHT22;37874;53.158;6.766;2023-01-24T10:27:42;18.20;53.40
51815;DHT22;37874;53.158;6.766;2023-01-24T10:30:15;18.20;53.30
51815;DHT22;37874;53.158;6.766;2023-01-24T10:32:42;18.20;53.30
51815;DHT22;37874;53.158;6.766;2023-01-24T10:35:29;18.20;53.30
51815;DHT22;37874;53.158;6.766;2023-01-24T10:37:58;18.30;53.20
51815;DHT22;37874;53.158;6.766;2023-01-24T10:40:25;18.30;53.30
51815;DHT22;37874;53.158;6.766;2023-01-24T10:42:51;18.30;53.20
51815;DHT22;37874;53.158;6.766;2023-01-24T10:48:23;18.30;53.30
51815;DHT22;37874;53.158;6.766;2023-01-24T10:50:52;18.30;53.20
51815;DHT22;37874;53.158;6.766;2023-01-24T10:53:26;18.30;53.20
51815;DHT22;37874;53.158;6.766;2023-01-24T10:56:03;18.30;53.10
51815;DHT22;37874;53.158;6.766;2023-01-24T10:58:39;18.40;53.20
51815;DHT22;37874;53.158;6.766;2023-01-24T11:01:16;18.30;53.20
51815;DHT22;37874;53.158;6.766;2023-01-24T11:03:44;18.30;53.10
51815;DHT22;37874;53.158;6.766;2023-01-24T11:06:39;18.30;53.20
51815;DHT22;37874;53.158;6.766;2023-01-24T11:09:13;18.30;53.10
51815;DHT22;37874;53.158;6.766;2023-01-24T11:11:45;18.40;53.10
51815;DHT22;37874;53.158;6.766;2023-01-24T11:14:15;18.40;53.10
51815;DHT22;37874;53.158;6.766;2023-01-24T11:16:46;18.40;53.00
51815;DHT22;37874;53.158;6.766;2023-01-24T11:19:26;18.40;53.00
51815;DHT22;37874;53.158;6.766;2023-01-24T11:22:01;18.40;53.00
51815;DHT22;37874;53.158;6.766;2023-01-24T11:24:30;18.40;53.10
51815;DHT22;37874;53.158;6.766;2023-01-24T11:27:13;18.40;53.00
51815;DHT22;37874;53.158;6.766;2023-01-24T11:29:39;18.40;53.00
51815;DHT22;37874;53.158;6.766;2023-01-24T11:35:07;18.40;53.00
51815;DHT22;37874;53.158;6.766;2023-01-24T11:46:05;18.40;53.10
51815;DHT22;37874;53.158;6.766;2023-01-24T12:03:06;18.40;53.10
51815;DHT22;37874;53.158;6.766;2023-01-24T12:11:28;18.40;53.10
51815;DHT22;37874;53.158;6.766;2023-01-24T12:14:06;18.40;53.10
51815;DHT22;37874;53.158;6.766;2023-01-24T12:16:51;18.40;53.00
51815;DHT22;37874;53.158;6.766;2023-01-24T12:22:21;18.40;53.00
51815;DHT22;37874;53.158;6.766;2023-01-24T12:25:02;18.40;53.00
51815;DHT22;37874;53.158;6.766;2023-01-24T12:27:34;18.40;53.10
51815;DHT22;37874;53.158;6.766;2023-01-24T12:30:13;18.40;53.10
51815;DHT22;37874;53.158;6.766;2023-01-24T12:32:49;18.40;53.00
51815;DHT22;37874;53.158;6.766;2023-01-24T12:35:26;18.40;53.20
51815;DHT22;37874;53.158;6.766;2023-01-24T12:38:00;18.40;53.30
51815;DHT22;37874;53.158;6.766;2023-01-24T12:43:55;18.40;53.20
51815;DHT22;37874;53.158;6.766;2023-01-24T12:46:37;18.40;53.30
51815;DHT22;37874;53.158;6.766;2023-01-24T12:52:09;18.40;53.10
51815;DHT22;37874;53.158;6.766;2023-01-24T12:54:43;18.40;53.20
51815;DHT22;37874;53.158;6.766;2023-01-24T12:57:29;18.40;53.20
51815;DHT22;37874;53.158;6.766;2023-01-24T12:59:56;18.40;53.20
51815;DHT22;37874;53.158;6.766;2023-01-24T13:05:20;18.40;53.10
51815;DHT22;37874;53.158;6.766;2023-01-24T13:08:12;18.80;53.40
51815;DHT22;37874;53.158;6.766;2023-01-24T13:10:50;18.30;53.00
51815;DHT22;37874;53.158;6.766;2023-01-24T13:13:23;18.30;53.00
51815;DHT22;37874;53.158;6.766;2023-01-24T13:16:03;18.30;53.10
51815;DHT22;37874;53.158;6.766;2023-01-24T13:21:43;18.30;53.00
51815;DHT22;37874;53.158;6.766;2023-01-24T13:24:34;18.30;52.90
51815;DHT22;37874;53.158;6.766;2023-01-24T13:27:23;18.30;53.10
51815;DHT22;37874;53.158;6.766;2023-01-24T13:32:34;18.30;53.00
51815;DHT22;37874;53.158;6.766;2023-01-24T13:35:23;18.30;53.10
51815;DHT22;37874;53.158;6.766;2023-01-24T13:40:30;18.30;53.30
51815;DHT22;37874;53.158;6.766;2023-01-24T13:43:04;18.30;53.10
51815;DHT22;37874;53.158;6.766;2023-01-24T13:45:47;18.30;53.10
51815;DHT22;37874;53.158;6.766;2023-01-24T13:51:32;18.20;53.20
51815;DHT22;37874;53.158;6.766;2023-01-24T13:56:24;18.30;53.20
51815;DHT22;37874;53.158;6.766;2023-01-24T13:58:51;18.20;53.20
51815;DHT22;37874;53.158;6.766;2023-01-24T14:01:18;18.50;53.30
51815;DHT22;37874;53.158;6.766;2023-01-24T14:03:59;18.10;53.20
51815;DHT22;37874;53.158;6.766;2023-01-24T14:06:26;18.20;53.20
51815;DHT22;37874;53.158;6.766;2023-01-24T14:09:21;18.30;53.30
51815;DHT22;37874;53.158;6.766;2023-01-24T14:11:59;18.20;53.20
51815;DHT22;37874;53.158;6.766;2023-01-24T14:23:22;18.30;53.40
51815;DHT22;37874;53.158;6.766;2023-01-24T14:25:55;18.20;53.30
51815;DHT22;37874;53.158;6.766;2023-01-24T16:29:37;18.20;53.50
51815;DHT22;37874;53.158;6.766;2023-01-24T16:32:03;18.00;53.40
51815;DHT22;37874;53.158;6.766;2023-01-24T16:34:28;18.10;53.50
51815;DHT22;37874;53.158;6.766;2023-01-24T16:36:54;18.10;53.50
51815;DHT22;37874;53.158;6.766;2023-01-24T16:39:21;18.10;53.50
51815;DHT22;37874;53.158;6.766;2023-01-24T16:41:48;18.10;53.40
51815;DHT22;37874;53.158;6.766;2023-01-24T16:44:14;18.10;53.40
51815;DHT22;37874;53.158;6.766;2023-01-24T16:46:47;18.00;53.40
51815;DHT22;37874;53.158;6.766;2023-01-24T16:49:13;18.10;53.40
51815;DHT22;37874;53.158;6.766;2023-01-24T16:51:38;18.00;53.40
51815;DHT22;37874;53.158;6.766;2023-01-24T16:54:04;18.10;53.60
51815;DHT22;37874;53.158;6.766;2023-01-24T16:56:29;18.10;53.50
51815;DHT22;37874;53.158;6.766;2023-01-24T16:58:55;18.10;53.50
51815;DHT22;37874;53.158;6.766;2023-01-24T17:01:21;18.10;53.50
51815;DHT22;37874;53.158;6.766;2023-01-24T17:03:51;18.10;53.50
51815;DHT22;37874;53.158;6.766;2023-01-24T17:06:17;18.20;53.60
51815;DHT22;37874;53.158;6.766;2023-01-24T17:08:53;18.10;53.60
51815;DHT22;37874;53.158;6.766;2023-01-24T17:11:18;18.10;53.60
51815;DHT22;37874;53.158;6.766;2023-01-24T17:13:50;18.10;53.50
51815;DHT22;37874;53.158;6.766;2023-01-24T17:16:16;18.00;53.50
51815;DHT22;37874;53.158;6.766;2023-01-24T17:18:42;18.00;53.50
51815;DHT22;37874;53.158;6.766;2023-01-24T17:21:10;18.00;53.50
51815;DHT22;37874;53.158;6.766;2023-01-24T17:23:37;18.00;53.50
51815;DHT22;37874;53.158;6.766;2023-01-24T19:27:16;17.90;53.40
51815;DHT22;37874;53.158;6.766;2023-01-24T19:29:41;17.90;53.50
51815;DHT22;37874;53.158;6.766;2023-01-24T19:32:08;17.90;53.50
51815;DHT22;37874;53.158;6.766;2023-01-24T19:34:34;17.90;53.50
51815;DHT22;37874;53.158;6.766;2023-01-24T19:36:59;17.90;53.50
51815;DHT22;37874;53.158;6.766;2023-01-24T19:39:25;17.90;53.50
51815;DHT22;37874;53.158;6.766;2023-01-24T19:41:51;17.90;53.50
51815;DHT22;37874;53.158;6.766;2023-01-24T19:44:17;17.90;53.60
51815;DHT22;37874;53.158;6.766;2023-01-24T19:46:47;17.90;53.50
51815;DHT22;37874;53.158;6.766;2023-01-24T19:49:13;18.00;53.50
51815;DHT22;37874;53.158;6.766;2023-01-24T19:51:39;17.90;54.10
51815;DHT22;37874;53.158;6.766;2023-01-24T19:54:04;17.90;53.60
51815;DHT22;37874;53.158;6.766;2023-01-24T19:56:30;17.90;53.50
51815;DHT22;37874;53.158;6.766;2023-01-24T19:58:56;17.90;53.50
51815;DHT22;37874;53.158;6.766;2023-01-24T20:01:22;17.90;53.50
51815;DHT22;37874;53.158;6.766;2023-01-24T20:03:48;17.90;53.50
51815;DHT22;37874;53.158;6.766;2023-01-24T20:06:18;17.90;53.60
51815;DHT22;37874;53.158;6.766;2023-01-24T20:08:55;17.90;53.50
51815;DHT22;37874;53.158;6.766;2023-01-24T20:11:22;17.90;53.50
51815;DHT22;37874;53.158;6.766;2023-01-24T20:13:49;17.90;53.60
51815;DHT22;37874;53.158;6.766;2023-01-24T20:16:20;17.90;53.60
51815;DHT22;37874;53.158;6.766;2023-01-24T20:18:51;17.90;53.60
51815;DHT22;37874;53.158;6.766;2023-01-24T20:21:18;17.90;53.70
51815;DHT22;37874;53.158;6.766;2023-01-24T20:23:44;17.90;53.60
51815;DHT22;37874;53.158;6.766;2023-01-24T20:26:11;17.90;53.60
51815;DHT22;37874;53.158;6.766;2023-01-24T20:28:37;17.90;53.70
51815;DHT22;37874;53.158;6.766;2023-01-24T20:31:05;17.90;53.70
51815;DHT22;37874;53.158;6.766;2023-01-24T20:33:31;17.90;53.70
51815;DHT22;37874;53.158;6.766;2023-01-24T20:36:05;17.90;53.80
51815;DHT22;37874;53.158;6.766;2023-01-24T20:38:32;17.90;53.80
51815;DHT22;37874;53.158;6.766;2023-01-24T20:40:59;17.90;53.90
51815;DHT22;37874;53.158;6.766;2023-01-24T20:43:25;17.90;54.00
51815;DHT22;37874;53.158;6.766;2023-01-24T20:45:51;17.90;53.90
51815;DHT22;37874;53.158;6.766;2023-01-24T20:48:17;17.90;53.90
51815;DHT22;37874;53.158;6.766;2023-01-24T20:50:42;17.90;53.90
51815;DHT22;37874;53.158;6.766;2023-01-24T20:53:08;17.90;54.00
51815;DHT22;37874;53.158;6.766;2023-01-24T20:55:34;18.00;53.90
51815;DHT22;37874;53.158;6.766;2023-01-24T20:57:59;18.00;53.90
51815;DHT22;37874;53.158;6.766;2023-01-24T21:00:25;18.00;53.80
51815;DHT22;37874;53.158;6.766;2023-01-24T21:02:51;18.00;53.70
51815;DHT22;37874;53.158;6.766;2023-01-24T21:05:18;18.00;53.80
51815;DHT22;37874;53.158;6.766;2023-01-24T21:07:43;17.30;53.30
51815;DHT22;37874;53.158;6.766;2023-01-24T21:10:09;18.10;53.80
51815;DHT22;37874;53.158;6.766;2023-01-24T21:12:35;18.10;53.70
51815;DHT22;37874;53.158;6.766;2023-01-24T21:15:01;18.10;53.60
51815;DHT22;37874;53.158;6.766;2023-01-24T21:17:28;18.10;53.50
51815;DHT22;37874;53.158;6.766;2023-01-24T21:19:56;18.10;53.60
51815;DHT22;37874;53.158;6.766;2023-01-24T21:22:22;18.20;53.60
51815;DHT22;37874;53.158;6.766;2023-01-24T21:24:48;18.20;53.50
51815;DHT22;37874;53.158;6.766;2023-01-24T21:27:13;18.20;53.50
51815;DHT22;37874;53.158;6.766;2023-01-24T21:29:39;18.20;53.40
51815;DHT22;37874;53.158;6.766;2023-01-24T21:32:05;19.20;54.10
51815;DHT22;37874;53.158;6.766;2023-01-24T21:34:30;18.20;53.80
51815;DHT22;37874;53.158;6.766;2023-01-24T21:36:56;18.20;53.70
51815;DHT22;37874;53.158;6.766;2023-01-24T21:39:22;18.20;53.70
51815;DHT22;37874;53.158;6.766;2023-01-24T21:41:51;18.30;53.60
51815;DHT22;37874;53.158;6.766;2023-01-24T21:44:21;18.30;53.70
51815;DHT22;37874;53.158;6.766;2023-01-24T21:46:46;18.30;53.80
51815;DHT22;37874;53.158;6.766;2023-01-24T21:49:12;18.30;53.70
51815;DHT22;37874;53.158;6.766;2023-01-24T21:51:49;18.30;53.70
51815;DHT22;37874;53.158;6.766;2023-01-24T21:54:23;18.30;53.70
51815;DHT22;37874;53.158;6.766;2023-01-24T21:57:03;18.40;53.70
51815;DHT22;37874;53.158;6.766;2023-01-24T21:59:56;18.40;53.70
51815;DHT22;37874;53.158;6.766;2023-01-24T22:02:25;18.40;53.60
51815;DHT22;37874;53.158;6.766;2023-01-24T22:04:51;18.40;53.60
51815;DHT22;37874;53.158;6.766;2023-01-24T22:07:20;18.40;53.60
51815;DHT22;37874;53.158;6.766;2023-01-24T22:09:47;18.50;53.60
